sensor_id;sensor_type;location;lat;lon;timestamp;temperature;humidity
80743;SHT31;70142;50.894;6.052;2023-05-27T00:00:44;11.50;70.98
80743;SHT31;70142;50.894;6.052;2023-05-27T00:03:17;11.42;71.07
80743;SHT31;70142;50.894;6.052;2023-05-27T00:05:51;11.42;70.99
80743;SHT31;70142;50.894;6.052;2023-05-27T00:08:24;11.32;71.49
80743;SHT31;70142;50.894;6.052;2023-05-27T00:10:57;11.28;71.45
80743;SHT31;70142;50.894;6.052;2023-05-27T00:13:32;11.34;71.40
80743;SHT31;70142;50.894;6.052;2023-05-27T00:16:06;11.34;71.28
80743;SHT31;70142;50.894;6.052;2023-05-27T00:18:40;11.27;71.45
80743;SHT31;70142;50.894;6.052;2023-05-27T00:21:13;11.24;71.54
80743;SHT31;70142;50.894;6.052;2023-05-27T00:23:47;11.17;71.58
80743;SHT31;70142;50.894;6.052;2023-05-27T00:26:23;11.18;71.96
80743;SHT31;70142;50.894;6.052;2023-05-27T00:28:59;11.07;71.95
80743;SHT31;70142;50.894;6.052;2023-05-27T00:31:33;11.03;72.48
80743;SHT31;70142;50.894;6.052;2023-05-27T00:34:07;11.00;72.47
80743;SHT31;70142;50.894;6.052;2023-05-27T00:36:40;10.94;72.54
80743;SHT31;70142;50.894;6.052;2023-05-27T00:39:13;10.94;72.45
80743;SHT31;70142;50.894;6.052;2023-05-27T00:41:48;10.94;72.58
80743;SHT31;70142;50.894;6.052;2023-05-27T00:44:23;10.91;72.42
80743;SHT31;70142;50.894;6.052;2023-05-27T00:46:57;10.91;72.48
80743;SHT31;70142;50.894;6.052;2023-05-27T00:49:30;10.91;72.29
80743;SHT31;70142;50.894;6.052;2023-05-27T00:52:04;10.90;72.59
80743;SHT31;70142;50.894;6.052;2023-05-27T00:54:37;10.83;72.89
80743;SHT31;70142;50.894;6.052;2023-05-27T00:57:11;10.73;73.07
80743;SHT31;70142;50.894;6.052;2023-05-27T00:59:48;10.66;73.45
80743;SHT31;70142;50.894;6.052;2023-05-27T01:02:21;10.69;73.17
80743;SHT31;70142;50.894;6.052;2023-05-27T01:04:55;10.74;72.86
80743;SHT31;70142;50.894;6.052;2023-05-27T01:07:37;10.70;73.06
80743;SHT31;70142;50.894;6.052;2023-05-27T01:10:25;10.73;72.70
80743;SHT31;70142;50.894;6.052;2023-05-27T01:13:06;10.59;73.35
80743;SHT31;70142;50.894;6.052;2023-05-27T01:15:41;10.59;73.31
80743;SHT31;70142;50.894;6.052;2023-05-27T01:18:16;10.61;73.14
80743;SHT31;70142;50.894;6.052;2023-05-27T01:20:51;10.61;73.39
80743;SHT31;70142;50.894;6.052;2023-05-27T01:23:27;10.66;72.74
80743;SHT31;70142;50.894;6.052;2023-05-27T01:26:01;10.53;73.35
80743;SHT31;70142;50.894;6.052;2023-05-27T01:28:35;10.49;73.60
80743;SHT31;70142;50.894;6.052;2023-05-27T01:31:14;10.46;73.57
80743;SHT31;70142;50.894;6.052;2023-05-27T01:33:55;10.49;73.43
80743;SHT31;70142;50.894;6.052;2023-05-27T01:36:37;10.47;73.35
80743;SHT31;70142;50.894;6.052;2023-05-27T01:39:12;10.37;73.53
80743;SHT31;70142;50.894;6.052;2023-05-27T01:41:46;10.35;73.80
80743;SHT31;70142;50.894;6.052;2023-05-27T01:44:20;10.35;73.99
80743;SHT31;70142;50.894;6.052;2023-05-27T01:47:00;10.35;73.85
80743;SHT31;70142;50.894;6.052;2023-05-27T01:49:34;10.35;73.67
80743;SHT31;70142;50.894;6.052;2023-05-27T01:52:08;10.36;73.85
80743;SHT31;70142;50.894;6.052;2023-05-27T01:54:43;10.39;73.67
80743;SHT31;70142;50.894;6.052;2023-05-27T01:57:17;10.33;73.86
80743;SHT31;70142;50.894;6.052;2023-05-27T01:59:50;10.32;73.92
80743;SHT31;70142;50.894;6.052;2023-05-27T02:02:23;10.28;74.09
80743;SHT31;70142;50.894;6.052;2023-05-27T02:04:57;10.33;73.74
80743;SHT31;70142;50.894;6.052;2023-05-27T02:07:31;10.28;73.81
80743;SHT31;70142;50.894;6.052;2023-05-27T02:10:06;10.19;74.15
80743;SHT31;70142;50.894;6.052;2023-05-27T02:12:40;10.10;74.17
80743;SHT31;70142;50.894;6.052;2023-05-27T02:15:13;10.16;74.11
80743;SHT31;70142;50.894;6.052;2023-05-27T02:17:47;10.08;74.40
80743;SHT31;70142;50.894;6.052;2023-05-27T02:20:26;10.09;74.05
80743;SHT31;70142;50.894;6.052;2023-05-27T02:23:05;10.02;74.62
80743;SHT31;70142;50.894;6.052;2023-05-27T02:25:40;9.86;75.26
80743;SHT31;70142;50.894;6.052;2023-05-27T02:28:14;9.78;75.62
80743;SHT31;70142;50.894;6.052;2023-05-27T02:30:47;9.71;75.60
80743;SHT31;70142;50.894;6.052;2023-05-27T02:33:21;9.74;75.54
80743;SHT31;70142;50.894;6.052;2023-05-27T02:35:54;9.79;75.41
80743;SHT31;70142;50.894;6.052;2023-05-27T02:38:27;9.84;75.16
80743;SHT31;70142;50.894;6.052;2023-05-27T02:41:02;9.81;75.05
80743;SHT31;70142;50.894;6.052;2023-05-27T02:43:36;9.73;75.28
80743;SHT31;70142;50.894;6.052;2023-05-27T02:46:09;9.77;75.05
80743;SHT31;70142;50.894;6.052;2023-05-27T02:48:42;9.85;74.60
80743;SHT31;70142;50.894;6.052;2023-05-27T02:51:15;9.78;74.86
80743;SHT31;70142;50.894;6.052;2023-05-27T02:53:50;9.75;75.19
80743;SHT31;70142;50.894;6.052;2023-05-27T02:56:24;9.71;74.81
80743;SHT31;70142;50.894;6.052;2023-05-27T02:58:58;9.70;74.90
80743;SHT31;70142;50.894;6.052;2023-05-27T03:01:32;9.70;75.09
80743;SHT31;70142;50.894;6.052;2023-05-27T03:04:05;9.64;75.38
80743;SHT31;70142;50.894;6.052;2023-05-27T03:06:38;9.57;75.41
80743;SHT31;70142;50.894;6.052;2023-05-27T03:09:14;9.52;75.70
80743;SHT31;70142;50.894;6.052;2023-05-27T03:11:49;9.52;75.79
80743;SHT31;70142;50.894;6.052;2023-05-27T03:14:24;9.48;75.63
80743;SHT31;70142;50.894;6.052;2023-05-27T03:16:57;9.55;75.41
80743;SHT31;70142;50.894;6.052;2023-05-27T03:19:31;9.47;75.76
80743;SHT31;70142;50.894;6.052;2023-05-27T03:22:04;9.43;75.70
80743;SHT31;70142;50.894;6.052;2023-05-27T03:24:38;9.41;75.91
80743;SHT31;70142;50.894;6.052;2023-05-27T03:27:13;9.41;76.02
80743;SHT31;70142;50.894;6.052;2023-05-27T03:29:50;9.41;75.68
80743;SHT31;70142;50.894;6.052;2023-05-27T03:32:24;9.33;76.08
80743;SHT31;70142;50.894;6.052;2023-05-27T03:34:57;9.34;76.16
80743;SHT31;70142;50.894;6.052;2023-05-27T03:37:30;9.34;75.96
80743;SHT31;70142;50.894;6.052;2023-05-27T03:40:08;9.31;76.26
80743;SHT31;70142;50.894;6.052;2023-05-27T03:42:43;9.30;76.08
80743;SHT31;70142;50.894;6.052;2023-05-27T03:45:21;9.28;76.31
80743;SHT31;70142;50.894;6.052;2023-05-27T03:47:55;9.31;76.28
80743;SHT31;70142;50.894;6.052;2023-05-27T03:50:29;9.33;76.16
80743;SHT31;70142;50.894;6.052;2023-05-27T03:53:04;9.27;76.35
80743;SHT31;70142;50.894;6.052;2023-05-27T03:55:37;9.26;76.56
80743;SHT31;70142;50.894;6.052;2023-05-27T03:58:12;9.30;76.13
80743;SHT31;70142;50.894;6.052;2023-05-27T04:00:46;9.27;76.43
80743;SHT31;70142;50.894;6.052;2023-05-27T04:03:21;9.30;75.97
80743;SHT31;70142;50.894;6.052;2023-05-27T04:05:54;9.31;76.07
80743;SHT31;70142;50.894;6.052;2023-05-27T04:08:29;9.33;76.05
80743;SHT31;70142;50.894;6.052;2023-05-27T04:11:02;9.37;76.08
80743;SHT31;70142;50.894;6.052;2023-05-27T04:13:37;9.40;76.20
80743;SHT31;70142;50.894;6.052;2023-05-27T04:16:10;9.37;76.02
80743;SHT31;70142;50.894;6.052;2023-05-27T04:18:44;9.43;75.97
80743;SHT31;70142;50.894;6.052;2023-05-27T04:21:24;9.51;75.77
80743;SHT31;70142;50.894;6.052;2023-05-27T04:23:59;9.51;75.66
80743;SHT31;70142;50.894;6.052;2023-05-27T04:26:33;9.52;75.85
80743;SHT31;70142;50.894;6.052;2023-05-27T04:29:08;9.64;75.41
80743;SHT31;70142;50.894;6.052;2023-05-27T04:31:44;9.59;75.55
80743;SHT31;70142;50.894;6.052;2023-05-27T04:34:21;9.64;75.38
80743;SHT31;70142;50.894;6.052;2023-05-27T04:36:54;9.65;75.51
80743;SHT31;70142;50.894;6.052;2023-05-27T04:39:30;9.68;75.57
80743;SHT31;70142;50.894;6.052;2023-05-27T04:42:04;9.65;75.58
80743;SHT31;70142;50.894;6.052;2023-05-27T04:44:46;9.67;75.69
80743;SHT31;70142;50.894;6.052;2023-05-27T04:47:23;9.79;75.36
80743;SHT31;70142;50.894;6.052;2023-05-27T04:49:56;9.91;74.98
80743;SHT31;70142;50.894;6.052;2023-05-27T04:52:29;9.98;74.93
80743;SHT31;70142;50.894;6.052;2023-05-27T04:55:10;10.43;73.39
80743;SHT31;70142;50.894;6.052;2023-05-27T04:57:44;10.99;71.62
80743;SHT31;70142;50.894;6.052;2023-05-27T05:00:20;11.32;70.43
80743;SHT31;70142;50.894;6.052;2023-05-27T05:03:08;11.54;69.84
80743;SHT31;70142;50.894;6.052;2023-05-27T05:05:43;11.76;68.75
80743;SHT31;70142;50.894;6.052;2023-05-27T05:08:17;11.93;68.15
80743;SHT31;70142;50.894;6.052;2023-05-27T05:10:51;12.05;67.54
80743;SHT31;70142;50.894;6.052;2023-05-27T05:13:24;12.26;66.98
80743;SHT31;70142;50.894;6.052;2023-05-27T05:16:02;12.48;66.74
80743;SHT31;70142;50.894;6.052;2023-05-27T05:18:36;12.78;65.69
80743;SHT31;70142;50.894;6.052;2023-05-27T05:21:09;12.89;65.29
80743;SHT31;70142;50.894;6.052;2023-05-27T05:23:45;12.89;65.30
80743;SHT31;70142;50.894;6.052;2023-05-27T05:26:19;12.98;64.84
80743;SHT31;70142;50.894;6.052;2023-05-27T05:28:52;13.19;64.48
80743;SHT31;70142;50.894;6.052;2023-05-27T05:31:27;13.43;63.46
80743;SHT31;70142;50.894;6.052;2023-05-27T05:34:01;13.58;63.35
80743;SHT31;70142;50.894;6.052;2023-05-27T05:36:37;13.69;62.75
80743;SHT31;70142;50.894;6.052;2023-05-27T05:39:13;13.59;63.23
80743;SHT31;70142;50.894;6.052;2023-05-27T05:41:52;13.56;63.21
80743;SHT31;70142;50.894;6.052;2023-05-27T05:44:25;13.18;64.20
80743;SHT31;70142;50.894;6.052;2023-05-27T05:47:01;13.09;64.49
80743;SHT31;70142;50.894;6.052;2023-05-27T05:49:34;13.49;63.69
80743;SHT31;70142;50.894;6.052;2023-05-27T05:52:09;13.65;63.04
80743;SHT31;70142;50.894;6.052;2023-05-27T05:54:43;13.70;62.60
80743;SHT31;70142;50.894;6.052;2023-05-27T05:57:16;14.14;61.83
80743;SHT31;70142;50.894;6.052;2023-05-27T05:59:49;14.49;60.81
80743;SHT31;70142;50.894;6.052;2023-05-27T06:02:24;14.17;61.53
80743;SHT31;70142;50.894;6.052;2023-05-27T06:04:58;14.04;61.96
80743;SHT31;70142;50.894;6.052;2023-05-27T06:07:32;13.67;63.21
80743;SHT31;70142;50.894;6.052;2023-05-27T06:10:11;13.77;63.25
80743;SHT31;70142;50.894;6.052;2023-05-27T06:12:47;14.17;62.44
80743;SHT31;70142;50.894;6.052;2023-05-27T06:15:21;14.75;61.27
80743;SHT31;70142;50.894;6.052;2023-05-27T06:17:56;15.05;60.11
80743;SHT31;70142;50.894;6.052;2023-05-27T06:20:29;14.91;59.57
80743;SHT31;70142;50.894;6.052;2023-05-27T06:23:02;14.55;60.61
80743;SHT31;70142;50.894;6.052;2023-05-27T06:25:35;14.88;60.75
80743;SHT31;70142;50.894;6.052;2023-05-27T06:28:11;15.20;59.31
80743;SHT31;70142;50.894;6.052;2023-05-27T06:30:44;15.29;58.94
80743;SHT31;70142;50.894;6.052;2023-05-27T06:33:22;15.64;58.59
80743;SHT31;70142;50.894;6.052;2023-05-27T06:35:56;15.89;57.25
80743;SHT31;70142;50.894;6.052;2023-05-27T06:38:29;16.01;57.26
80743;SHT31;70142;50.894;6.052;2023-05-27T06:41:03;16.29;56.32
80743;SHT31;70142;50.894;6.052;2023-05-27T06:43:37;16.22;55.79
80743;SHT31;70142;50.894;6.052;2023-05-27T06:46:21;16.64;54.44
80743;SHT31;70142;50.894;6.052;2023-05-27T06:49:12;16.68;54.58
80743;SHT31;70142;50.894;6.052;2023-05-27T06:51:46;16.42;55.25
80743;SHT31;70142;50.894;6.052;2023-05-27T06:54:19;16.32;55.99
80743;SHT31;70142;50.894;6.052;2023-05-27T06:56:53;16.51;55.51
80743;SHT31;70142;50.894;6.052;2023-05-27T06:59:26;16.61;55.03
80743;SHT31;70142;50.894;6.052;2023-05-27T07:01:59;16.68;55.33
80743;SHT31;70142;50.894;6.052;2023-05-27T07:04:34;16.93;54.84
80743;SHT31;70142;50.894;6.052;2023-05-27T07:07:11;17.29;54.06
80743;SHT31;70142;50.894;6.052;2023-05-27T07:09:44;17.02;53.98
80743;SHT31;70142;50.894;6.052;2023-05-27T07:12:18;17.40;53.91
80743;SHT31;70142;50.894;6.052;2023-05-27T07:14:55;17.60;53.27
80743;SHT31;70142;50.894;6.052;2023-05-27T07:17:30;17.75;52.62
80743;SHT31;70142;50.894;6.052;2023-05-27T07:20:06;17.73;52.20
80743;SHT31;70142;50.894;6.052;2023-05-27T07:22:40;18.04;52.56
80743;SHT31;70142;50.894;6.052;2023-05-27T07:25:14;18.28;51.36
80743;SHT31;70142;50.894;6.052;2023-05-27T07:27:47;18.55;51.07
80743;SHT31;70142;50.894;6.052;2023-05-27T07:30:20;18.28;50.85
80743;SHT31;70142;50.894;6.052;2023-05-27T07:32:58;18.65;51.22
80743;SHT31;70142;50.894;6.052;2023-05-27T07:35:34;18.60;50.77
80743;SHT31;70142;50.894;6.052;2023-05-27T07:38:07;18.67;50.68
80743;SHT31;70142;50.894;6.052;2023-05-27T07:40:40;19.10;50.21
80743;SHT31;70142;50.894;6.052;2023-05-27T07:43:14;19.08;49.68
80743;SHT31;70142;50.894;6.052;2023-05-27T07:45:47;19.43;49.36
80743;SHT31;70142;50.894;6.052;2023-05-27T07:48:20;19.39;48.68
80743;SHT31;70142;50.894;6.052;2023-05-27T07:50:55;19.02;50.73
80743;SHT31;70142;50.894;6.052;2023-05-27T07:53:31;18.55;51.32
80743;SHT31;70142;50.894;6.052;2023-05-27T07:56:05;19.23;49.71
80743;SHT31;70142;50.894;6.052;2023-05-27T07:58:38;19.43;48.95
80743;SHT31;70142;50.894;6.052;2023-05-27T08:01:16;19.24;49.35
80743;SHT31;70142;50.894;6.052;2023-05-27T08:03:54;19.23;49.49
80743;SHT31;70142;50.894;6.052;2023-05-27T08:06:52;19.68;48.05
80743;SHT31;70142;50.894;6.052;2023-05-27T08:09:36;19.64;47.93
80743;SHT31;70142;50.894;6.052;2023-05-27T08:12:28;19.50;48.02
80743;SHT31;70142;50.894;6.052;2023-05-27T08:15:26;19.96;46.67
80743;SHT31;70142;50.894;6.052;2023-05-27T08:18:18;20.20;46.21
80743;SHT31;70142;50.894;6.052;2023-05-27T08:21:15;19.58;47.56
80743;SHT31;70142;50.894;6.052;2023-05-27T08:24:04;19.71;46.92
80743;SHT31;70142;50.894;6.052;2023-05-27T08:26:58;19.47;47.28
80743;SHT31;70142;50.894;6.052;2023-05-27T08:29:54;19.82;46.74
80743;SHT31;70142;50.894;6.052;2023-05-27T08:32:35;20.16;46.28
80743;SHT31;70142;50.894;6.052;2023-05-27T08:35:09;20.46;45.88
80743;SHT31;70142;50.894;6.052;2023-05-27T08:37:42;20.13;45.23
80743;SHT31;70142;50.894;6.052;2023-05-27T08:40:18;20.49;45.78
80743;SHT31;70142;50.894;6.052;2023-05-27T08:42:55;20.64;44.73
80743;SHT31;70142;50.894;6.052;2023-05-27T08:45:28;21.10;44.90
80743;SHT31;70142;50.894;6.052;2023-05-27T08:48:02;21.11;44.50
80743;SHT31;70142;50.894;6.052;2023-05-27T08:50:40;20.52;45.43
80743;SHT31;70142;50.894;6.052;2023-05-27T08:53:16;20.20;45.03
80743;SHT31;70142;50.894;6.052;2023-05-27T08:55:54;20.47;45.44
80743;SHT31;70142;50.894;6.052;2023-05-27T08:58:30;21.14;44.05
80743;SHT31;70142;50.894;6.052;2023-05-27T09:01:04;20.94;43.57
80743;SHT31;70142;50.894;6.052;2023-05-27T09:03:38;20.87;44.00
80743;SHT31;70142;50.894;6.052;2023-05-27T09:06:11;21.48;43.39
80743;SHT31;70142;50.894;6.052;2023-05-27T09:08:44;21.76;43.80
80743;SHT31;70142;50.894;6.052;2023-05-27T09:11:25;21.58;43.63
80743;SHT31;70142;50.894;6.052;2023-05-27T09:14:00;21.41;43.59
80743;SHT31;70142;50.894;6.052;2023-05-27T09:16:33;21.38;43.59
80743;SHT31;70142;50.894;6.052;2023-05-27T09:19:14;21.58;43.67
80743;SHT31;70142;50.894;6.052;2023-05-27T09:21:48;22.24;42.17
80743;SHT31;70142;50.894;6.052;2023-05-27T09:24:25;22.33;41.64
80743;SHT31;70142;50.894;6.052;2023-05-27T09:26:59;21.96;42.37
80743;SHT31;70142;50.894;6.052;2023-05-27T09:29:37;21.72;42.93
80743;SHT31;70142;50.894;6.052;2023-05-27T09:32:11;22.16;41.84
80743;SHT31;70142;50.894;6.052;2023-05-27T09:34:46;22.65;41.48
80743;SHT31;70142;50.894;6.052;2023-05-27T09:37:19;22.02;42.15
80743;SHT31;70142;50.894;6.052;2023-05-27T09:39:53;21.81;43.09
80743;SHT31;70142;50.894;6.052;2023-05-27T09:42:38;21.82;43.06
80743;SHT31;70142;50.894;6.052;2023-05-27T09:45:13;21.96;42.14
80743;SHT31;70142;50.894;6.052;2023-05-27T09:47:48;22.09;42.23
80743;SHT31;70142;50.894;6.052;2023-05-27T09:50:22;22.05;42.53
80743;SHT31;70142;50.894;6.052;2023-05-27T09:52:57;21.98;42.17
80743;SHT31;70142;50.894;6.052;2023-05-27T09:55:42;21.96;42.21
80743;SHT31;70142;50.894;6.052;2023-05-27T09:58:17;22.36;40.95
80743;SHT31;70142;50.894;6.052;2023-05-27T10:00:52;22.98;40.58
80743;SHT31;70142;50.894;6.052;2023-05-27T10:03:29;22.81;40.29
80743;SHT31;70142;50.894;6.052;2023-05-27T10:06:05;22.61;40.69
80743;SHT31;70142;50.894;6.052;2023-05-27T10:08:38;23.48;40.50
80743;SHT31;70142;50.894;6.052;2023-05-27T10:11:12;24.10;38.40
80743;SHT31;70142;50.894;6.052;2023-05-27T10:13:49;23.95;38.65
80743;SHT31;70142;50.894;6.052;2023-05-27T10:16:25;23.53;39.47
80743;SHT31;70142;50.894;6.052;2023-05-27T10:19:01;23.31;39.60
80743;SHT31;70142;50.894;6.052;2023-05-27T10:21:42;23.18;40.81
80743;SHT31;70142;50.894;6.052;2023-05-27T10:24:15;23.72;41.49
80743;SHT31;70142;50.894;6.052;2023-05-27T10:27:00;23.02;41.65
80743;SHT31;70142;50.894;6.052;2023-05-27T10:29:37;23.07;41.47
80743;SHT31;70142;50.894;6.052;2023-05-27T10:32:10;22.23;43.18
80743;SHT31;70142;50.894;6.052;2023-05-27T10:34:44;22.84;41.67
80743;SHT31;70142;50.894;6.052;2023-05-27T10:37:21;23.14;40.37
80743;SHT31;70142;50.894;6.052;2023-05-27T10:39:56;23.10;42.10
80743;SHT31;70142;50.894;6.052;2023-05-27T10:42:30;23.31;41.02
80743;SHT31;70142;50.894;6.052;2023-05-27T10:45:08;23.05;42.01
80743;SHT31;70142;50.894;6.052;2023-05-27T10:47:45;23.02;41.21
80743;SHT31;70142;50.894;6.052;2023-05-27T10:50:19;22.97;39.69
80743;SHT31;70142;50.894;6.052;2023-05-27T10:53:02;23.26;39.32
80743;SHT31;70142;50.894;6.052;2023-05-27T10:55:36;24.09;39.10
80743;SHT31;70142;50.894;6.052;2023-05-27T10:58:09;24.31;38.08
80743;SHT31;70142;50.894;6.052;2023-05-27T11:00:48;23.92;38.36
80743;SHT31;70142;50.894;6.052;2023-05-27T11:03:23;24.38;38.23
80743;SHT31;70142;50.894;6.052;2023-05-27T11:06:01;24.85;36.95
80743;SHT31;70142;50.894;6.052;2023-05-27T11:08:35;24.58;37.08
80743;SHT31;70142;50.894;6.052;2023-05-27T11:11:10;24.17;35.83
80743;SHT31;70142;50.894;6.052;2023-05-27T11:13:45;23.90;36.54
80743;SHT31;70142;50.894;6.052;2023-05-27T11:16:21;24.56;36.80
80743;SHT31;70142;50.894;6.052;2023-05-27T11:18:54;24.85;35.50
80743;SHT31;70142;50.894;6.052;2023-05-27T11:21:28;24.64;36.04
80743;SHT31;70142;50.894;6.052;2023-05-27T11:24:01;24.94;36.27
80743;SHT31;70142;50.894;6.052;2023-05-27T11:26:34;25.01;35.57
80743;SHT31;70142;50.894;6.052;2023-05-27T11:29:07;24.54;36.74
80743;SHT31;70142;50.894;6.052;2023-05-27T11:31:47;24.54;35.67
80743;SHT31;70142;50.894;6.052;2023-05-27T11:34:20;24.02;36.69
80743;SHT31;70142;50.894;6.052;2023-05-27T11:36:53;23.92;36.97
80743;SHT31;70142;50.894;6.052;2023-05-27T11:39:27;24.23;37.03
80743;SHT31;70142;50.894;6.052;2023-05-27T11:42:05;24.26;36.64
80743;SHT31;70142;50.894;6.052;2023-05-27T11:44:38;24.14;36.60
80743;SHT31;70142;50.894;6.052;2023-05-27T11:47:16;24.56;36.46
80743;SHT31;70142;50.894;6.052;2023-05-27T11:49:52;24.94;35.88
80743;SHT31;70142;50.894;6.052;2023-05-27T11:52:25;24.96;35.30
80743;SHT31;70142;50.894;6.052;2023-05-27T11:54:59;24.92;35.52
80743;SHT31;70142;50.894;6.052;2023-05-27T11:57:32;25.59;34.81
80743;SHT31;70142;50.894;6.052;2023-05-27T12:00:06;25.96;34.17
80743;SHT31;70142;50.894;6.052;2023-05-27T12:02:41;25.97;35.07
80743;SHT31;70142;50.894;6.052;2023-05-27T12:05:15;26.27;34.30
80743;SHT31;70142;50.894;6.052;2023-05-27T12:08:05;26.35;34.45
80743;SHT31;70142;50.894;6.052;2023-05-27T12:10:38;26.84;33.67
80743;SHT31;70142;50.894;6.052;2023-05-27T12:13:12;26.72;32.99
80743;SHT31;70142;50.894;6.052;2023-05-27T12:15:45;26.48;32.07
80743;SHT31;70142;50.894;6.052;2023-05-27T12:18:19;26.54;31.82
80743;SHT31;70142;50.894;6.052;2023-05-27T12:20:53;26.20;33.65
80743;SHT31;70142;50.894;6.052;2023-05-27T12:23:26;26.33;33.84
80743;SHT31;70142;50.894;6.052;2023-05-27T12:25:59;26.24;34.35
80743;SHT31;70142;50.894;6.052;2023-05-27T12:28:33;26.68;33.99
80743;SHT31;70142;50.894;6.052;2023-05-27T12:31:07;26.61;34.56
80743;SHT31;70142;50.894;6.052;2023-05-27T12:33:42;25.70;35.01
80743;SHT31;70142;50.894;6.052;2023-05-27T12:36:16;25.60;33.88
80743;SHT31;70142;50.894;6.052;2023-05-27T12:38:51;25.56;33.74
80743;SHT31;70142;50.894;6.052;2023-05-27T12:41:24;25.36;34.33
80743;SHT31;70142;50.894;6.052;2023-05-27T12:43:58;25.97;34.28
80743;SHT31;70142;50.894;6.052;2023-05-27T12:46:31;26.76;33.34
80743;SHT31;70142;50.894;6.052;2023-05-27T12:49:06;27.12;32.75
80743;SHT31;70142;50.894;6.052;2023-05-27T12:51:39;26.71;33.10
80743;SHT31;70142;50.894;6.052;2023-05-27T12:54:14;26.17;34.00
80743;SHT31;70142;50.894;6.052;2023-05-27T12:56:50;26.49;33.60
80743;SHT31;70142;50.894;6.052;2023-05-27T12:59:24;26.18;33.97
80743;SHT31;70142;50.894;6.052;2023-05-27T13:01:57;26.30;33.97
80743;SHT31;70142;50.894;6.052;2023-05-27T13:04:31;25.41;34.99
80743;SHT31;70142;50.894;6.052;2023-05-27T13:07:05;25.45;35.70
80743;SHT31;70142;50.894;6.052;2023-05-27T13:09:39;25.93;35.06
80743;SHT31;70142;50.894;6.052;2023-05-27T13:12:13;25.66;36.06
80743;SHT31;70142;50.894;6.052;2023-05-27T13:14:46;24.82;36.61
80743;SHT31;70142;50.894;6.052;2023-05-27T13:17:19;25.04;35.88
80743;SHT31;70142;50.894;6.052;2023-05-27T13:19:54;26.16;34.20
80743;SHT31;70142;50.894;6.052;2023-05-27T13:22:28;26.16;34.20
80743;SHT31;70142;50.894;6.052;2023-05-27T13:25:02;26.16;34.23
80743;SHT31;70142;50.894;6.052;2023-05-27T13:27:35;25.89;34.69
80743;SHT31;70142;50.894;6.052;2023-05-27T13:30:10;26.59;34.31
80743;SHT31;70142;50.894;6.052;2023-05-27T13:32:45;26.34;34.93
80743;SHT31;70142;50.894;6.052;2023-05-27T13:35:20;26.16;35.15
80743;SHT31;70142;50.894;6.052;2023-05-27T13:37:53;26.51;34.51
80743;SHT31;70142;50.894;6.052;2023-05-27T13:40:27;26.48;34.86
80743;SHT31;70142;50.894;6.052;2023-05-27T13:43:00;25.96;36.19
80743;SHT31;70142;50.894;6.052;2023-05-27T13:45:33;26.16;36.71
80743;SHT31;70142;50.894;6.052;2023-05-27T13:48:07;26.05;37.05
80743;SHT31;70142;50.894;6.052;2023-05-27T13:50:41;26.67;35.57
80743;SHT31;70142;50.894;6.052;2023-05-27T13:53:15;27.29;33.29
80743;SHT31;70142;50.894;6.052;2023-05-27T13:55:48;27.80;31.60
80743;SHT31;70142;50.894;6.052;2023-05-27T13:58:22;27.38;32.83
80743;SHT31;70142;50.894;6.052;2023-05-27T14:00:55;26.57;34.23
80743;SHT31;70142;50.894;6.052;2023-05-27T14:03:30;26.20;34.86
80743;SHT31;70142;50.894;6.052;2023-05-27T14:06:06;25.93;34.90
80743;SHT31;70142;50.894;6.052;2023-05-27T14:08:39;25.93;34.95
80743;SHT31;70142;50.894;6.052;2023-05-27T14:11:12;26.49;35.41
80743;SHT31;70142;50.894;6.052;2023-05-27T14:13:46;26.91;34.40
80743;SHT31;70142;50.894;6.052;2023-05-27T14:16:20;26.61;34.18
80743;SHT31;70142;50.894;6.052;2023-05-27T14:18:54;26.47;34.28
80743;SHT31;70142;50.894;6.052;2023-05-27T14:21:29;25.83;34.52
80743;SHT31;70142;50.894;6.052;2023-05-27T14:24:02;25.83;36.16
80743;SHT31;70142;50.894;6.052;2023-05-27T14:26:35;26.34;36.00
80743;SHT31;70142;50.894;6.052;2023-05-27T14:29:09;26.75;34.91
80743;SHT31;70142;50.894;6.052;2023-05-27T14:31:42;26.99;34.89
80743;SHT31;70142;50.894;6.052;2023-05-27T14:34:15;26.61;35.16
80743;SHT31;70142;50.894;6.052;2023-05-27T14:36:50;26.74;34.40
80743;SHT31;70142;50.894;6.052;2023-05-27T14:39:23;26.78;34.36
80743;SHT31;70142;50.894;6.052;2023-05-27T14:41:56;26.58;34.32
80743;SHT31;70142;50.894;6.052;2023-05-27T14:44:33;27.19;33.92
80743;SHT31;70142;50.894;6.052;2023-05-27T14:47:07;27.74;32.44
80743;SHT31;70142;50.894;6.052;2023-05-27T14:49:41;27.26;33.57
80743;SHT31;70142;50.894;6.052;2023-05-27T14:52:15;27.33;33.44
80743;SHT31;70142;50.894;6.052;2023-05-27T14:54:48;26.95;34.24
80743;SHT31;70142;50.894;6.052;2023-05-27T14:57:22;27.29;33.79
80743;SHT31;70142;50.894;6.052;2023-05-27T14:59:55;27.43;33.23
80743;SHT31;70142;50.894;6.052;2023-05-27T15:02:28;27.36;32.39
80743;SHT31;70142;50.894;6.052;2023-05-27T15:05:05;27.61;32.41
80743;SHT31;70142;50.894;6.052;2023-05-27T15:07:40;27.39;33.46
80743;SHT31;70142;50.894;6.052;2023-05-27T15:10:14;27.38;32.89
80743;SHT31;70142;50.894;6.052;2023-05-27T15:12:47;26.98;33.66
80743;SHT31;70142;50.894;6.052;2023-05-27T15:15:20;26.65;34.00
80743;SHT31;70142;50.894;6.052;2023-05-27T15:17:53;27.47;32.85
80743;SHT31;70142;50.894;6.052;2023-05-27T15:20:27;26.94;33.77
80743;SHT31;70142;50.894;6.052;2023-05-27T15:23:02;27.18;32.64
80743;SHT31;70142;50.894;6.052;2023-05-27T15:25:38;27.18;33.42
80743;SHT31;70142;50.894;6.052;2023-05-27T15:28:11;27.16;32.75
80743;SHT31;70142;50.894;6.052;2023-05-27T15:30:44;27.49;32.48
80743;SHT31;70142;50.894;6.052;2023-05-27T15:33:18;27.73;32.24
80743;SHT31;70142;50.894;6.052;2023-05-27T15:35:51;27.18;32.89
80743;SHT31;70142;50.894;6.052;2023-05-27T15:38:26;25.59;35.05
80743;SHT31;70142;50.894;6.052;2023-05-27T15:40:59;26.00;35.01
80743;SHT31;70142;50.894;6.052;2023-05-27T15:43:32;25.74;35.28
80743;SHT31;70142;50.894;6.052;2023-05-27T15:46:05;25.92;34.90
80743;SHT31;70142;50.894;6.052;2023-05-27T15:48:39;26.10;34.32
80743;SHT31;70142;50.894;6.052;2023-05-27T15:51:13;26.69;33.65
80743;SHT31;70142;50.894;6.052;2023-05-27T15:53:47;26.98;32.66
80743;SHT31;70142;50.894;6.052;2023-05-27T15:56:21;27.09;33.34
80743;SHT31;70142;50.894;6.052;2023-05-27T15:58:54;27.06;33.86
80743;SHT31;70142;50.894;6.052;2023-05-27T16:01:27;26.92;34.19
80743;SHT31;70142;50.894;6.052;2023-05-27T16:04:00;26.54;34.49
80743;SHT31;70142;50.894;6.052;2023-05-27T16:06:33;26.85;32.75
80743;SHT31;70142;50.894;6.052;2023-05-27T16:09:08;27.00;33.80
80743;SHT31;70142;50.894;6.052;2023-05-27T16:11:42;26.88;34.20
80743;SHT31;70142;50.894;6.052;2023-05-27T16:14:15;26.62;34.28
80743;SHT31;70142;50.894;6.052;2023-05-27T16:16:48;26.67;34.33
80743;SHT31;70142;50.894;6.052;2023-05-27T16:19:22;26.47;35.22
80743;SHT31;70142;50.894;6.052;2023-05-27T16:21:55;26.71;35.23